createdAt,value
2019-05-14T00:01:56.622Z,100691.48
2019-05-14T00:04:26.947Z,100674.16
2019-05-14T00:06:57.196Z,100639.64
2019-05-14T00:09:27.305Z,100610.97
2019-05-14T00:11:57.812Z,100619.80
2019-05-14T00:14:39.204Z,100630.88
2019-05-14T00:17:01.767Z,100628.36
2019-05-14T00:19:32.430Z,100619.27
2019-05-14T00:22:02.700Z,100607.23
2019-05-14T00:24:32.967Z,100594.06
2019-05-14T00:27:03.402Z,100574.36
2019-05-14T00:29:33.665Z,100568.86
2019-05-14T00:32:04.089Z,100558.11
2019-05-14T00:34:34.419Z,100545.47
2019-05-14T00:37:04.718Z,100546.64
2019-05-14T00:39:35.117Z,100551.03
2019-05-14T00:42:05.599Z,100549.84
2019-05-14T00:44:35.871Z,100537.52
2019-05-14T00:47:06.118Z,100541.92
2019-05-14T00:49:36.856Z,100538.19
2019-05-14T00:52:07.153Z,100548.79
2019-05-14T00:54:37.369Z,100556.73
2019-05-14T00:57:07.694Z,100570.80
2019-05-14T00:59:38.170Z,100565.91
2019-05-14T01:02:11.183Z,100566.09
2019-05-14T01:04:42.768Z,100581.36
2019-05-14T01:07:15.363Z,100590.27
2019-05-14T01:09:45.768Z,100592.64
2019-05-14T01:12:16.137Z,100593.00
2019-05-14T01:14:46.355Z,100592.42
2019-05-14T01:17:16.763Z,100593.95
2019-05-14T01:19:47.225Z,100600.28
2019-05-14T01:22:17.857Z,100595.89
2019-05-14T01:24:48.059Z,100600.05
2019-05-14T01:27:18.371Z,100613.16
2019-05-14T01:29:51.194Z,100612.52
2019-05-14T01:32:22.085Z,100613.09
2019-05-14T01:34:52.493Z,100615.76
2019-05-14T01:37:22.779Z,100617.34
2019-05-14T01:39:53.176Z,100618.96
2019-05-14T01:42:23.369Z,100612.52
2019-05-14T01:44:53.758Z,100613.75
2019-05-14T01:47:24.176Z,100623.75
2019-05-14T01:49:54.561Z,100614.68
2019-05-14T01:52:24.821Z,100605.38
2019-05-14T01:54:55.057Z,100610.36
2019-05-14T01:57:25.339Z,100599.06
2019-05-14T01:59:55.963Z,100579.97
2019-05-14T02:02:26.312Z,100564.97
2019-05-14T02:04:56.713Z,100571.41
2019-05-14T02:07:27.377Z,100581.09
2019-05-14T02:09:57.983Z,100583.01
2019-05-14T02:12:28.322Z,100577.77
2019-05-14T02:14:58.573Z,100577.88
2019-05-14T02:17:28.895Z,100590.14
2019-05-14T02:20:02.046Z,100594.58
2019-05-14T02:22:32.528Z,100596.63
2019-05-14T02:25:02.875Z,100592.69
2019-05-14T02:27:35.014Z,100591.83
2019-05-14T02:30:06.003Z,100597.23
2019-05-14T02:32:36.235Z,100599.27
2019-05-14T02:35:09.623Z,100599.16
2019-05-14T02:37:40.042Z,100596.55
2019-05-14T02:40:11.142Z,100586.88
2019-05-14T02:42:41.436Z,100586.64
2019-05-14T02:45:11.946Z,100590.44
2019-05-14T02:47:42.240Z,100593.55
2019-05-14T02:50:12.603Z,100591.77
2019-05-14T02:52:42.984Z,100603.70
2019-05-14T02:55:13.227Z,100604.19
2019-05-14T02:57:43.462Z,100599.98
2019-05-14T03:00:13.998Z,100589.05
2019-05-14T03:02:44.367Z,100587.48
2019-05-14T03:05:14.909Z,100584.03
2019-05-14T03:07:45.227Z,100574.62
2019-05-14T03:10:15.596Z,100584.38
2019-05-14T03:12:45.959Z,100593.70
2019-05-14T03:15:19.841Z,100600.25
2019-05-14T03:17:49.416Z,100607.66
2019-05-14T03:20:20.324Z,100612.42
2019-05-14T03:23:01.794Z,100624.66
2019-05-14T03:25:23.234Z,100630.73
2019-05-14T03:27:54.057Z,100630.72
2019-05-14T03:30:24.368Z,100626.92
2019-05-14T03:32:54.680Z,100634.09
2019-05-14T03:35:35.524Z,100643.14
2019-05-14T03:38:00.142Z,100657.70
2019-05-14T03:40:29.495Z,100673.38
2019-05-14T03:43:00.111Z,100682.46
2019-05-14T03:45:30.575Z,100700.38
2019-05-14T03:48:01.288Z,100720.00
2019-05-14T03:50:31.573Z,100724.19
2019-05-14T03:53:02.006Z,100728.37
2019-05-14T03:55:32.240Z,100724.92
2019-05-14T03:58:02.590Z,100725.41
2019-05-14T04:00:55.107Z,100723.72
2019-05-14T04:03:25.353Z,100718.11
2019-05-14T04:05:58.707Z,100710.33
2019-05-14T04:08:29.437Z,100719.64
2019-05-14T04:11:00.785Z,100755.33
2019-05-14T04:13:32.459Z,100759.16
2019-05-14T04:16:04.441Z,100726.20
2019-05-14T04:18:40.487Z,100703.27
2019-05-14T04:21:10.534Z,100696.83
2019-05-14T04:23:43.628Z,100700.86
2019-05-14T04:26:19.825Z,100704.81
2019-05-14T04:28:49.724Z,100701.09
2019-05-14T04:31:21.227Z,100697.13
2019-05-14T04:33:52.114Z,100688.42
2019-05-14T04:36:22.299Z,100671.45
2019-05-14T04:38:55.193Z,100654.77
2019-05-14T04:41:24.563Z,100639.69
2019-05-14T04:43:54.721Z,100636.83
2019-05-14T04:46:24.949Z,100638.02
2019-05-14T04:48:55.094Z,100637.58
2019-05-14T04:51:25.374Z,100649.03
2019-05-14T04:53:55.606Z,100624.92
2019-05-14T04:56:25.546Z,100623.73
2019-05-14T04:58:55.552Z,100605.84
2019-05-14T05:01:25.786Z,100589.73
2019-05-14T05:03:58.856Z,100573.72
2019-05-14T05:06:29.159Z,100557.50
2019-05-14T05:09:00.241Z,100547.00
2019-05-14T05:11:30.516Z,100539.36
2019-05-14T05:14:00.787Z,100550.31
2019-05-14T05:16:31.102Z,100540.28
2019-05-14T05:19:01.225Z,100545.25
2019-05-14T05:21:31.409Z,100557.64
2019-05-14T05:24:01.661Z,100564.80
2019-05-14T05:26:31.722Z,100582.61
2019-05-14T05:29:06.647Z,100610.09
2019-05-14T05:31:34.005Z,100616.53
2019-05-14T05:34:04.206Z,100629.69
2019-05-14T05:36:34.464Z,100636.94
2019-05-14T05:41:42.305Z,100647.92
2019-05-14T05:44:12.495Z,100639.26
2019-05-14T05:46:43.290Z,100621.62
2019-05-14T05:49:13.677Z,100617.88
2019-05-14T05:51:43.650Z,100626.30
2019-05-14T05:54:13.820Z,100624.09
2019-05-14T05:56:43.973Z,100628.34
2019-05-14T05:59:14.278Z,100620.44
2019-05-14T06:01:46.509Z,100605.50
2019-05-14T06:04:18.236Z,100597.73
2019-05-14T06:06:48.551Z,100598.92
2019-05-14T06:09:19.584Z,100615.66
2019-05-14T06:11:49.867Z,100603.48
2019-05-14T06:14:20.004Z,100599.37
2019-05-14T06:16:50.215Z,100596.09
2019-05-14T06:19:20.488Z,100583.79
2019-05-14T06:21:50.606Z,100595.27
2019-05-14T06:24:20.779Z,100599.56
2019-05-14T06:26:51.028Z,100597.06
2019-05-14T06:29:21.326Z,100606.61
2019-05-14T06:31:51.439Z,100604.22
2019-05-14T06:34:21.588Z,100616.33
2019-05-14T06:36:51.901Z,100615.92
2019-05-14T06:39:22.095Z,100616.73
2019-05-14T06:41:52.435Z,100616.55
2019-05-14T06:44:22.611Z,100614.94
2019-05-14T06:46:53.063Z,100622.58
2019-05-14T06:49:23.402Z,100620.36
2019-05-14T06:51:53.605Z,100618.38
2019-05-14T06:54:23.822Z,100623.18
2019-05-14T06:56:54.095Z,100643.23
2019-05-14T06:59:24.278Z,100654.41
2019-05-14T07:01:54.465Z,100662.36
2019-05-14T07:04:25.085Z,100676.55
2019-05-14T07:06:55.304Z,100668.53
2019-05-14T07:09:28.953Z,100657.22
2019-05-14T07:11:59.129Z,100652.14
2019-05-14T07:14:29.320Z,100648.77
2019-05-14T07:16:59.678Z,100648.67
2019-05-14T07:19:29.838Z,100642.22
2019-05-14T07:22:00.053Z,100646.36
2019-05-14T07:24:30.239Z,100653.51
2019-05-14T07:27:00.555Z,100667.13
2019-05-14T07:29:30.785Z,100673.19
2019-05-14T07:32:01.054Z,100676.05
2019-05-14T07:34:31.632Z,100671.17
2019-05-14T07:37:01.796Z,100673.67
2019-05-14T07:39:31.915Z,100674.66
2019-05-14T07:42:02.021Z,100671.80
2019-05-14T07:44:32.230Z,100666.45
2019-05-14T07:47:04.145Z,100667.69
2019-05-14T07:49:34.350Z,100666.04
2019-05-14T07:52:04.535Z,100659.72
2019-05-14T07:54:34.763Z,100644.63
2019-05-14T07:57:04.984Z,100637.00
2019-05-14T07:59:35.054Z,100639.58
2019-05-14T08:02:05.308Z,100649.42
2019-05-14T08:04:35.447Z,100640.31
2019-05-14T08:07:05.557Z,100637.41
2019-05-14T08:09:35.683Z,100624.61
2019-05-14T08:12:05.891Z,100621.53
2019-05-14T08:14:45.934Z,100628.59
2019-05-14T08:17:08.630Z,100618.93
2019-05-14T08:19:39.084Z,100632.43
2019-05-14T08:22:09.766Z,100642.53
2019-05-14T08:24:40.055Z,100654.88
2019-05-14T08:27:10.131Z,100649.04
2019-05-14T08:29:40.298Z,100640.45
2019-05-14T08:32:10.603Z,100648.27
2019-05-14T08:34:40.780Z,100641.89
2019-05-14T08:37:11.040Z,100627.85
2019-05-14T08:39:41.377Z,100617.36
2019-05-14T08:42:11.714Z,100627.10
2019-05-14T08:44:41.931Z,100615.58
2019-05-14T08:47:12.344Z,100608.06
2019-05-14T08:49:46.357Z,100596.16
2019-05-14T08:52:16.120Z,100604.61
2019-05-14T08:54:49.170Z,100594.72
2019-05-14T08:57:19.310Z,100587.27
2019-05-14T08:59:49.628Z,100597.31
2019-05-14T09:02:20.022Z,100597.70
2019-05-14T09:04:53.627Z,100599.19
2019-05-14T09:07:22.376Z,100592.53
2019-05-14T09:09:52.719Z,100574.04
2019-05-14T09:12:23.909Z,100571.69
2019-05-14T09:14:54.335Z,100572.25
2019-05-14T09:17:24.631Z,100565.42
2019-05-14T09:20:01.850Z,100561.98
2019-05-14T09:22:28.952Z,100571.74
2019-05-14T09:25:00.048Z,100579.13
2019-05-14T09:27:30.501Z,100583.42
2019-05-14T09:30:00.818Z,100579.05
2019-05-14T09:32:31.133Z,100572.30
2019-05-14T09:35:01.469Z,100566.29
2019-05-14T09:37:31.719Z,100591.02
2019-05-14T09:40:01.989Z,100617.80
2019-05-14T09:42:32.261Z,100643.92
2019-05-14T09:45:02.542Z,100673.23
2019-05-14T09:47:32.888Z,100703.30
2019-05-14T09:50:18.384Z,100729.52
2019-05-14T09:52:35.516Z,100729.38
2019-05-14T09:55:06.066Z,100719.34
2019-05-14T09:57:38.621Z,100701.45
2019-05-14T10:00:10.341Z,100668.44
2019-05-14T10:02:41.025Z,100619.33
2019-05-14T10:05:11.631Z,100608.18
2019-05-14T10:07:41.951Z,100620.31
2019-05-14T10:10:12.177Z,100617.47
2019-05-14T10:12:52.506Z,100597.66
2019-05-14T10:15:15.017Z,100594.31
2019-05-14T10:17:45.301Z,100587.39
2019-05-14T10:20:35.118Z,100594.91
2019-05-14T10:22:48.292Z,100589.19
2019-05-14T10:25:18.720Z,100589.83
2019-05-14T10:27:49.296Z,100593.75
2019-05-14T10:30:19.841Z,100578.48
2019-05-14T10:32:50.063Z,100551.11
2019-05-14T10:35:20.350Z,100549.41
2019-05-14T10:37:54.269Z,100556.81
2019-05-14T10:40:22.676Z,100611.59
2019-05-14T10:42:52.952Z,100631.30
2019-05-14T10:45:23.334Z,100602.97
2019-05-14T10:47:53.634Z,100621.05
2019-05-14T10:50:24.074Z,100631.17
2019-05-14T10:52:59.474Z,100610.78
2019-05-14T10:55:29.420Z,100603.23
2019-05-14T10:57:59.622Z,100608.03
2019-05-14T11:00:29.888Z,100609.27
2019-05-14T11:03:01.043Z,100610.86
2019-05-14T11:05:31.155Z,100598.77
2019-05-14T11:08:01.329Z,100598.20
2019-05-14T11:10:31.623Z,100599.40
2019-05-14T11:13:02.018Z,100579.77
2019-05-14T11:15:32.304Z,100577.11
2019-05-14T11:18:02.529Z,100569.99
2019-05-14T11:20:32.935Z,100561.36
2019-05-14T11:23:03.158Z,100564.38
2019-05-14T11:25:33.428Z,100568.75
2019-05-14T11:28:03.726Z,100560.41
2019-05-14T11:30:34.083Z,100571.83
2019-05-14T11:33:04.365Z,100567.16
2019-05-14T11:35:34.698Z,100564.20
2019-05-14T11:38:25.932Z,100557.64
2019-05-14T11:40:38.881Z,100535.45
2019-05-14T11:43:09.282Z,100544.94
2019-05-14T11:45:39.701Z,100545.87
2019-05-14T11:48:10.536Z,100530.61
2019-05-14T11:50:40.679Z,100512.34
2019-05-14T11:53:10.889Z,100489.97
2019-05-14T11:55:41.611Z,100475.48
2019-05-14T11:58:11.866Z,100488.31
2019-05-14T12:00:42.125Z,100499.89
2019-05-14T12:03:12.471Z,100499.02
2019-05-14T12:05:42.792Z,100497.26
2019-05-14T12:08:13.137Z,100479.16
2019-05-14T12:10:43.376Z,100476.53
2019-05-14T12:13:13.627Z,100457.16
2019-05-14T12:15:43.881Z,100433.73
2019-05-14T12:18:14.324Z,100440.56
2019-05-14T12:20:44.622Z,100460.78
2019-05-14T12:23:14.955Z,100470.53
2019-05-14T12:25:45.512Z,100488.24
2019-05-14T12:28:15.800Z,100493.28
2019-05-14T12:30:48.743Z,100479.66
2019-05-14T12:33:19.667Z,100479.23
2019-05-14T12:35:50.240Z,100479.14
2019-05-14T12:38:22.589Z,100488.57
2019-05-14T12:40:52.813Z,100481.84
2019-05-14T12:43:23.183Z,100483.15
2019-05-14T12:45:53.530Z,100473.28
2019-05-14T12:48:23.809Z,100439.92
2019-05-14T12:50:53.917Z,100413.86
2019-05-14T12:53:24.291Z,100416.13
2019-05-14T12:55:54.571Z,100414.24
2019-05-14T12:58:25.125Z,100413.05
2019-05-14T13:00:55.543Z,100405.42
2019-05-14T13:03:28.340Z,100426.38
2019-05-14T13:05:58.777Z,100428.20
2019-05-14T13:08:29.248Z,100421.62
2019-05-14T13:10:59.947Z,100438.75
2019-05-14T13:13:30.204Z,100434.72
2019-05-14T13:16:04.184Z,100431.80
2019-05-14T13:18:32.621Z,100417.23
2019-05-14T13:21:02.895Z,100430.59
2019-05-14T13:23:33.179Z,100420.47
2019-05-14T13:26:03.532Z,100424.56
2019-05-14T13:28:33.901Z,100403.56
2019-05-14T13:31:04.323Z,100393.32
2019-05-14T13:33:34.598Z,100398.22
2019-05-14T13:36:04.844Z,100408.36
2019-05-14T13:38:35.224Z,100412.84
2019-05-14T13:41:05.571Z,100419.76
2019-05-14T13:43:38.752Z,100430.22
2019-05-14T13:46:10.005Z,100422.59
2019-05-14T13:48:43.383Z,100420.39
2019-05-14T13:51:12.331Z,100412.87
2019-05-14T13:53:42.713Z,100413.27
2019-05-14T13:56:12.985Z,100425.70
2019-05-14T13:58:43.452Z,100420.71
2019-05-14T14:01:13.684Z,100415.89
2019-05-14T14:03:52.566Z,100410.13
2019-05-14T14:06:20.451Z,100410.37
2019-05-14T14:08:48.815Z,100421.08
2019-05-14T14:11:19.561Z,100421.52
2019-05-14T14:13:50.246Z,100410.13
2019-05-14T14:16:23.140Z,100411.00
2019-05-14T14:18:53.283Z,100419.61
2019-05-14T14:21:23.731Z,100431.86
2019-05-14T14:23:54.052Z,100441.73
2019-05-14T14:26:24.320Z,100456.66
2019-05-14T14:28:54.688Z,100456.20
2019-05-14T14:31:24.881Z,100456.16
2019-05-14T14:33:55.782Z,100471.40
2019-05-14T14:36:29.845Z,100470.22
2019-05-14T14:38:58.948Z,100455.09
2019-05-14T14:41:29.317Z,100464.80
2019-05-14T14:43:59.696Z,100461.89
2019-05-14T14:46:29.989Z,100457.93
2019-05-14T14:49:02.664Z,100455.30
2019-05-14T14:51:32.369Z,100435.54
2019-05-14T14:54:10.918Z,100441.73
2019-05-14T14:56:34.691Z,100438.91
2019-05-14T14:59:05.024Z,100426.22
2019-05-14T15:01:35.228Z,100424.55
2019-05-14T15:04:05.506Z,100433.76
2019-05-14T15:06:39.450Z,100420.66
2019-05-14T15:09:09.772Z,100438.06
2019-05-14T15:11:40.319Z,100436.75
2019-05-14T15:14:10.627Z,100429.53
2019-05-14T15:16:41.876Z,100417.95
2019-05-14T15:19:12.655Z,100404.79
2019-05-14T15:21:43.334Z,100391.96
2019-05-14T15:24:15.644Z,100387.44
2019-05-14T15:26:45.562Z,100383.16
2019-05-14T15:29:18.505Z,100373.69
2019-05-14T15:31:49.414Z,100380.98
2019-05-14T15:34:19.697Z,100372.73
2019-05-14T15:36:50.011Z,100394.84
2019-05-14T15:39:22.454Z,100400.72
2019-05-14T15:41:52.992Z,100427.83
2019-05-14T15:44:23.222Z,100441.42
2019-05-14T15:46:53.501Z,100455.03
2019-05-14T15:49:23.805Z,100463.47
2019-05-14T15:51:54.051Z,100454.69
2019-05-14T15:54:39.220Z,100470.75
2019-05-14T15:56:58.656Z,100469.33
2019-05-14T15:59:28.549Z,100462.70
2019-05-14T16:01:59.268Z,100449.59
2019-05-14T16:04:29.603Z,100456.54
2019-05-14T16:06:59.841Z,100475.67
2019-05-14T16:09:30.044Z,100476.25
2019-05-14T16:12:00.535Z,100485.59
2019-05-14T16:14:30.870Z,100489.41
2019-05-14T16:17:01.195Z,100477.30
2019-05-14T16:19:31.555Z,100486.95
2019-05-14T16:22:01.786Z,100478.77
2019-05-14T16:24:32.212Z,100476.34
2019-05-14T16:27:02.950Z,100439.50
2019-05-14T16:29:41.202Z,100436.66
2019-05-14T16:32:05.384Z,100437.67
2019-05-14T16:34:40.239Z,100431.94
2019-05-14T16:37:11.163Z,100420.73
2019-05-14T16:39:39.801Z,100419.55
2019-05-14T16:42:10.169Z,100414.11
2019-05-14T16:44:40.474Z,100415.89
2019-05-14T16:47:10.878Z,100419.27
2019-05-14T16:49:41.199Z,100412.14
2019-05-14T16:52:11.758Z,100409.61
2019-05-14T16:54:42.568Z,100393.02
2019-05-14T16:57:12.913Z,100396.96
2019-05-14T16:59:43.377Z,100389.94
2019-05-14T17:02:13.746Z,100380.63
2019-05-14T17:04:44.392Z,100391.94
2019-05-14T17:07:15.229Z,100415.77
2019-05-14T17:09:45.704Z,100402.73
2019-05-14T17:12:20.089Z,100385.75
2019-05-14T17:14:48.045Z,100368.81
2019-05-14T17:17:20.162Z,100366.19
2019-05-14T17:19:51.546Z,100368.74
2019-05-14T17:22:29.111Z,100356.33
2019-05-14T17:24:53.946Z,100341.00
2019-05-14T17:27:24.181Z,100319.39
2019-05-14T17:29:54.517Z,100293.24
2019-05-14T17:32:25.116Z,100257.95
2019-05-14T17:34:55.360Z,100314.55
2019-05-14T17:37:28.436Z,100332.58
2019-05-14T17:39:58.235Z,100318.39
2019-05-14T17:42:28.709Z,100287.86
2019-05-14T17:44:59.804Z,100274.33
2019-05-14T17:47:30.526Z,100276.50
2019-05-14T17:50:00.809Z,100281.03
2019-05-14T17:52:32.346Z,100307.77
2019-05-14T17:55:02.730Z,100303.61
2019-05-14T17:57:35.349Z,100302.91
2019-05-14T18:00:09.460Z,100272.59
2019-05-14T18:02:39.779Z,100257.06
2019-05-14T18:05:10.321Z,100263.65
2019-05-14T18:07:40.802Z,100245.66
2019-05-14T18:10:12.299Z,100243.30
2019-05-14T18:12:42.635Z,100246.86
2019-05-14T18:15:13.119Z,100247.64
2019-05-14T18:17:43.431Z,100243.59
2019-05-14T18:20:14.655Z,100253.95
2019-05-14T18:22:45.059Z,100245.02
2019-05-14T18:25:15.378Z,100251.66
2019-05-14T18:27:46.066Z,100259.33
2019-05-14T18:30:18.217Z,100275.08
2019-05-14T18:32:48.881Z,100289.48
2019-05-14T18:35:19.143Z,100306.55
2019-05-14T18:37:49.430Z,100318.37
2019-05-14T18:40:20.044Z,100323.85
2019-05-14T18:42:50.301Z,100324.08
2019-05-14T18:45:20.742Z,100332.46
2019-05-14T18:47:51.067Z,100343.44
2019-05-14T18:50:21.399Z,100349.48
2019-05-14T18:52:51.811Z,100331.93
2019-05-14T18:55:22.050Z,100332.14
2019-05-14T18:57:52.273Z,100319.38
2019-05-14T19:00:22.739Z,100323.67
2019-05-14T19:02:53.174Z,100314.94
2019-05-14T19:05:23.901Z,100319.25
2019-05-14T19:07:54.198Z,100292.34
2019-05-14T19:10:24.546Z,100302.06
2019-05-14T19:12:54.809Z,100302.52
2019-05-14T19:15:25.180Z,100312.18
2019-05-14T19:17:57.891Z,100291.16
2019-05-14T19:20:28.292Z,100295.16
2019-05-14T19:23:00.245Z,100318.34
2019-05-14T19:25:31.267Z,100338.04
2019-05-14T19:28:01.541Z,100328.93
2019-05-14T19:30:32.458Z,100321.18
2019-05-14T19:33:03.158Z,100314.74
2019-05-14T19:35:33.522Z,100313.43
2019-05-14T19:38:03.825Z,100326.22
2019-05-14T19:40:34.098Z,100343.38
2019-05-14T19:43:04.336Z,100345.66
2019-05-14T19:45:35.237Z,100335.61
2019-05-14T19:48:08.042Z,100310.66
2019-05-14T19:50:38.693Z,100311.70
2019-05-14T19:53:09.245Z,100309.69
2019-05-14T19:55:39.678Z,100309.94
2019-05-14T19:58:09.977Z,100311.73
2019-05-14T20:00:40.287Z,100318.16
2019-05-14T20:03:10.563Z,100319.93
2019-05-14T20:05:40.902Z,100320.12
2019-05-14T20:08:11.160Z,100316.55
2019-05-14T20:10:41.439Z,100293.11
2019-05-14T20:13:11.796Z,100277.92
2019-05-14T20:15:42.135Z,100294.41
2019-05-14T20:18:13.499Z,100294.25
2019-05-14T20:20:43.729Z,100280.00
2019-05-14T20:23:14.059Z,100271.72
2019-05-14T20:25:44.370Z,100272.29
2019-05-14T20:28:15.011Z,100287.12
2019-05-14T20:30:45.316Z,100272.53
2019-05-14T20:33:15.759Z,100263.90
2019-05-14T20:35:47.912Z,100276.98
2019-05-14T20:38:18.590Z,100275.67
2019-05-14T20:40:48.953Z,100267.78
2019-05-14T20:43:19.299Z,100256.52
2019-05-14T20:45:49.730Z,100253.89
2019-05-14T20:48:20.471Z,100268.79
2019-05-14T20:50:50.704Z,100256.98
2019-05-14T20:53:20.922Z,100256.42
2019-05-14T20:55:51.285Z,100265.15
2019-05-14T20:58:21.908Z,100243.98
2019-05-14T21:00:52.241Z,100230.36
2019-05-14T21:03:22.664Z,100233.22
2019-05-14T21:05:53.082Z,100247.18
2019-05-14T21:08:23.864Z,100257.30
2019-05-14T21:10:58.685Z,100248.05
2019-05-14T21:13:28.189Z,100247.34
2019-05-14T21:15:58.508Z,100241.98
2019-05-14T21:18:35.231Z,100248.70
2019-05-14T21:21:00.777Z,100245.86
2019-05-14T21:23:32.051Z,100246.44
2019-05-14T21:26:02.465Z,100238.17
2019-05-14T21:28:32.776Z,100237.06
2019-05-14T21:31:03.074Z,100240.50
2019-05-14T21:33:33.581Z,100221.73
2019-05-14T21:36:03.931Z,100220.78
2019-05-14T21:38:34.225Z,100195.67
2019-05-14T21:41:04.611Z,100190.78
2019-05-14T21:43:35.051Z,100193.05
2019-05-14T21:46:05.322Z,100206.55
2019-05-14T21:48:35.525Z,100187.54
2019-05-14T21:51:05.898Z,100184.48
2019-05-14T21:53:38.683Z,100165.24
2019-05-14T21:56:10.445Z,100152.08
2019-05-14T21:58:41.005Z,100147.66
2019-05-14T22:01:12.273Z,100133.38
2019-05-14T22:03:42.628Z,100131.91
2019-05-14T22:06:13.009Z,100134.53
2019-05-14T22:08:43.649Z,100122.11
2019-05-14T22:11:14.377Z,100135.02
2019-05-14T22:13:45.392Z,100110.86
2019-05-14T22:16:15.688Z,100113.52
2019-05-14T22:18:48.247Z,100101.87
2019-05-14T22:21:18.495Z,100097.87
2019-05-14T22:23:49.816Z,100098.81
2019-05-14T22:26:20.182Z,100095.41
2019-05-14T22:28:51.309Z,100106.89
2019-05-14T22:31:21.992Z,100102.25
2019-05-14T22:33:52.892Z,100101.20
2019-05-14T22:36:23.266Z,100120.33
2019-05-14T22:38:53.600Z,100125.31
2019-05-14T22:41:28.907Z,100126.16
2019-05-14T22:44:00.035Z,100123.16
2019-05-14T22:46:30.494Z,100128.78
2019-05-14T22:49:00.803Z,100120.53
2019-05-14T22:51:33.197Z,100113.36
2019-05-14T22:54:03.297Z,100111.71
2019-05-14T22:56:33.585Z,100122.62
2019-05-14T22:59:06.168Z,100110.56
2019-05-14T23:01:38.591Z,100108.78
2019-05-14T23:04:09.054Z,100096.72
2019-05-14T23:06:39.522Z,100089.55
2019-05-14T23:09:09.834Z,100081.95
2019-05-14T23:11:40.203Z,100091.67
2019-05-14T23:14:10.602Z,100083.26
2019-05-14T23:16:41.974Z,100090.70
2019-05-14T23:19:12.380Z,100089.38
2019-05-14T23:21:42.724Z,100092.01
2019-05-14T23:24:13.161Z,100086.62
2019-05-14T23:26:44.026Z,100079.48
2019-05-14T23:29:14.302Z,100058.95
2019-05-14T23:31:44.907Z,100066.16
2019-05-14T23:34:15.372Z,100067.23
2019-05-14T23:36:48.312Z,100062.59
2019-05-14T23:39:18.724Z,100062.85
2019-05-14T23:41:49.522Z,100069.55
2019-05-14T23:44:22.031Z,100072.57
2019-05-14T23:46:52.346Z,100079.34
2019-05-14T23:49:22.560Z,100043.91
2019-05-14T23:51:52.888Z,100055.55
2019-05-14T23:54:23.574Z,100067.23
2019-05-14T23:56:53.881Z,100059.36
2019-05-14T23:59:25.046Z,100033.67
